createdAt,value
2023-07-19T00:00:06.907Z,40.76
2023-07-19T00:03:02.532Z,40.86
2023-07-19T00:05:30.670Z,40.97
2023-07-19T00:07:58.656Z,41.11
2023-07-19T00:10:26.370Z,41.27
2023-07-19T00:12:56.562Z,41.28
2023-07-19T00:15:25.494Z,41.46
2023-07-19T00:17:53.559Z,41.45
2023-07-19T00:20:21.082Z,41.39
2023-07-19T00:22:48.750Z,41.50
2023-07-19T00:25:16.213Z,41.59
2023-07-19T00:27:43.406Z,41.53
2023-07-19T00:30:11.724Z,41.68
2023-07-19T00:32:39.554Z,41.83
2023-07-19T00:35:07.558Z,41.84
2023-07-19T00:37:35.237Z,41.84
2023-07-19T00:40:04.686Z,41.92
2023-07-19T00:42:32.205Z,41.99
2023-07-19T00:44:59.952Z,41.99
2023-07-19T00:47:28.484Z,42.04
2023-07-19T00:49:56.131Z,42.09
2023-07-19T00:52:23.866Z,42.04
2023-07-19T00:54:51.346Z,42.10
2023-07-19T00:57:19.029Z,42.22
2023-07-19T00:59:46.668Z,42.25
2023-07-19T01:02:15.256Z,42.19
2023-07-19T01:04:44.082Z,42.31
2023-07-19T01:07:12.055Z,42.34
2023-07-19T01:09:39.716Z,42.61
2023-07-19T01:12:08.767Z,42.56
2023-07-19T01:14:36.828Z,42.63
2023-07-19T01:17:04.497Z,42.58
2023-07-19T01:19:31.843Z,42.65
2023-07-19T01:21:59.733Z,42.72
2023-07-19T01:24:27.442Z,42.90
2023-07-19T01:26:59.103Z,42.89
2023-07-19T01:29:31.147Z,43.01
2023-07-19T01:31:58.794Z,43.11
2023-07-19T01:34:27.903Z,43.16
2023-07-19T01:36:55.405Z,43.01
2023-07-19T01:39:22.854Z,43.13
2023-07-19T01:41:50.016Z,43.22
2023-07-19T01:44:18.793Z,43.32
2023-07-19T01:46:46.456Z,43.32
2023-07-19T01:49:13.629Z,43.42
2023-07-19T01:51:41.362Z,43.54
2023-07-19T01:54:08.509Z,43.64
2023-07-19T01:56:35.754Z,43.45
2023-07-19T01:59:03.600Z,43.66
2023-07-19T02:01:30.873Z,43.66
2023-07-19T02:03:58.815Z,43.88
2023-07-19T02:06:26.909Z,43.91
2023-07-19T02:08:54.091Z,43.79
2023-07-19T02:11:21.528Z,43.81
2023-07-19T02:13:49.597Z,43.86
2023-07-19T02:16:16.843Z,43.87
2023-07-19T02:18:44.201Z,43.98
2023-07-19T02:21:12.423Z,43.90
2023-07-19T02:23:40.565Z,43.98
2023-07-19T02:26:07.745Z,44.17
2023-07-19T02:28:35.056Z,44.11
2023-07-19T02:31:04.443Z,44.13
2023-07-19T02:33:31.628Z,44.24
2023-07-19T02:35:59.549Z,44.23
2023-07-19T02:38:27.049Z,44.28
2023-07-19T02:41:02.008Z,44.38
2023-07-19T02:43:30.406Z,44.23
2023-07-19T02:45:58.107Z,44.27
2023-07-19T02:48:26.182Z,44.29
2023-07-19T02:50:53.798Z,44.46
2023-07-19T02:53:20.973Z,44.51
2023-07-19T02:55:48.469Z,44.57
2023-07-19T02:58:16.350Z,44.56
2023-07-19T03:00:44.277Z,44.56
2023-07-19T03:03:13.251Z,44.65
2023-07-19T03:05:45.475Z,44.66
2023-07-19T03:08:13.040Z,44.60
2023-07-19T03:10:40.887Z,44.65
2023-07-19T03:13:09.791Z,44.70
2023-07-19T03:15:37.682Z,44.65
2023-07-19T03:18:05.539Z,44.69
2023-07-19T03:20:33.628Z,44.82
2023-07-19T03:23:01.629Z,44.88
2023-07-19T03:25:32.254Z,44.96
2023-07-19T03:28:00.381Z,45.09
2023-07-19T03:30:28.003Z,45.13
2023-07-19T03:32:56.906Z,45.20
2023-07-19T03:35:24.384Z,45.09
2023-07-19T03:37:51.678Z,45.13
2023-07-19T03:40:19.589Z,45.26
2023-07-19T03:42:58.243Z,45.24
2023-07-19T03:45:29.289Z,45.25
2023-07-19T03:47:56.663Z,45.25
2023-07-19T03:50:26.355Z,45.36
2023-07-19T03:52:54.602Z,45.49
2023-07-19T03:55:22.594Z,45.59
2023-07-19T03:57:50.444Z,45.47
2023-07-19T04:00:18.930Z,45.51
2023-07-19T04:02:46.261Z,45.51
2023-07-19T04:05:18.432Z,45.58
2023-07-19T04:07:46.248Z,45.60
2023-07-19T04:10:13.778Z,45.60
2023-07-19T04:12:41.196Z,45.56
2023-07-19T04:15:09.177Z,45.64
2023-07-19T04:17:37.075Z,45.66
2023-07-19T04:20:07.186Z,45.74
2023-07-19T04:22:34.853Z,45.68
2023-07-19T04:25:04.269Z,45.67
2023-07-19T04:27:32.290Z,45.73
2023-07-19T04:30:00.546Z,45.77
2023-07-19T04:32:28.064Z,45.78
2023-07-19T04:34:55.718Z,45.78
2023-07-19T04:37:23.177Z,45.78
2023-07-19T04:39:51.285Z,45.86
2023-07-19T04:42:20.316Z,46.07
2023-07-19T04:44:50.151Z,46.07
2023-07-19T04:47:17.719Z,46.10
2023-07-19T04:49:45.091Z,45.84
2023-07-19T04:52:12.651Z,45.85
2023-07-19T04:54:41.658Z,45.67
2023-07-19T04:57:09.183Z,45.56
2023-07-19T04:59:37.276Z,45.10
2023-07-19T05:02:05.424Z,44.99
2023-07-19T05:04:32.661Z,43.93
2023-07-19T05:07:00.890Z,43.50
2023-07-19T05:09:30.765Z,43.25
2023-07-19T05:11:58.121Z,43.17
2023-07-19T05:14:27.393Z,43.00
2023-07-19T05:16:54.940Z,43.29
2023-07-19T05:19:22.140Z,43.23
2023-07-19T05:21:51.535Z,42.94
2023-07-19T05:24:18.847Z,42.21
2023-07-19T05:26:46.886Z,42.49
2023-07-19T05:29:14.237Z,42.55
2023-07-19T05:31:42.115Z,42.19
2023-07-19T05:34:09.347Z,42.78
2023-07-19T05:36:38.828Z,42.59
2023-07-19T05:39:06.520Z,42.36
2023-07-19T05:41:34.102Z,42.17
2023-07-19T05:44:10.715Z,40.98
2023-07-19T05:46:40.014Z,40.93
2023-07-19T05:49:07.430Z,41.12
2023-07-19T05:51:34.739Z,40.99
2023-07-19T05:54:04.379Z,41.22
2023-07-19T05:56:32.506Z,40.41
2023-07-19T05:59:01.336Z,40.33
2023-07-19T06:01:32.265Z,39.10
2023-07-19T06:04:02.527Z,39.08
2023-07-19T06:06:30.172Z,38.10
2023-07-19T06:08:57.317Z,38.10
2023-07-19T06:11:24.874Z,38.48
2023-07-19T06:13:52.159Z,38.33
2023-07-19T06:16:19.366Z,38.30
2023-07-19T06:18:46.908Z,37.92
2023-07-19T06:21:14.378Z,37.36
2023-07-19T06:23:42.256Z,35.80
2023-07-19T06:26:10.614Z,36.54
2023-07-19T06:28:38.376Z,35.71
2023-07-19T06:31:05.732Z,35.03
2023-07-19T06:33:33.573Z,33.89
2023-07-19T06:36:01.245Z,34.39
2023-07-19T06:38:28.709Z,34.07
2023-07-19T06:41:03.283Z,33.35
2023-07-19T06:43:31.555Z,32.91
2023-07-19T06:46:00.633Z,33.19
2023-07-19T06:48:28.175Z,32.89
2023-07-19T06:50:57.606Z,32.49
2023-07-19T06:53:24.844Z,31.86
2023-07-19T06:55:55.166Z,32.29
2023-07-19T06:58:22.520Z,31.81
2023-07-19T07:00:49.852Z,32.10
2023-07-19T07:03:17.898Z,31.28
2023-07-19T07:05:46.349Z,30.86
2023-07-19T07:08:13.605Z,30.42
2023-07-19T07:10:44.410Z,31.01
2023-07-19T07:13:12.042Z,30.67
2023-07-19T07:15:39.278Z,29.98
2023-07-19T07:18:06.868Z,28.58
2023-07-19T07:20:38.680Z,28.93
2023-07-19T07:23:05.931Z,29.66
2023-07-19T07:25:34.749Z,28.74
2023-07-19T07:28:02.609Z,28.01
2023-07-19T07:30:29.897Z,27.80
2023-07-19T07:32:57.505Z,27.53
2023-07-19T07:35:24.949Z,27.35
2023-07-19T07:37:52.394Z,27.06
2023-07-19T07:40:19.941Z,26.89
2023-07-19T07:42:47.709Z,27.24
2023-07-19T07:45:15.701Z,27.14
2023-07-19T07:48:11.730Z,26.32
2023-07-19T07:50:44.993Z,26.22
2023-07-19T07:53:13.601Z,26.05
2023-07-19T07:55:42.481Z,25.72
2023-07-19T07:58:11.253Z,25.69
2023-07-19T08:00:38.850Z,25.92
2023-07-19T08:03:06.275Z,25.22
2023-07-19T08:05:34.290Z,25.32
2023-07-19T08:08:03.135Z,25.13
2023-07-19T08:10:30.743Z,25.47
2023-07-19T08:12:58.226Z,25.08
2023-07-19T08:15:29.765Z,24.78
2023-07-19T08:18:10.309Z,24.63
2023-07-19T08:20:44.319Z,24.52
2023-07-19T08:23:11.649Z,24.91
2023-07-19T08:25:39.323Z,24.82
2023-07-19T08:28:06.754Z,24.35
2023-07-19T08:30:34.253Z,24.11
2023-07-19T08:33:09.113Z,24.19
2023-07-19T08:35:36.827Z,23.96
2023-07-19T08:38:04.149Z,23.68
2023-07-19T08:40:33.056Z,23.33
2023-07-19T08:43:08.203Z,23.55
2023-07-19T08:45:37.845Z,23.67
2023-07-19T08:48:06.432Z,23.95
2023-07-19T08:50:36.955Z,23.74
2023-07-19T08:53:05.455Z,23.40
2023-07-19T08:55:33.090Z,23.11
2023-07-19T08:58:02.544Z,23.49
2023-07-19T09:00:34.382Z,23.39
2023-07-19T09:03:02.100Z,23.23
2023-07-19T09:05:30.630Z,23.28
2023-07-19T09:08:03.487Z,23.21
2023-07-19T09:10:50.696Z,23.13
2023-07-19T09:13:21.953Z,23.10
2023-07-19T09:15:52.791Z,23.20
2023-07-19T09:18:29.440Z,23.23
2023-07-19T09:21:00.275Z,23.08
2023-07-19T09:23:27.541Z,23.02
2023-07-19T09:25:56.213Z,22.99
2023-07-19T09:28:24.910Z,23.38
2023-07-19T09:31:08.287Z,23.34
2023-07-19T09:33:43.853Z,23.47
2023-07-19T09:36:18.761Z,23.50
2023-07-19T09:38:47.072Z,23.54
2023-07-19T09:41:14.496Z,23.42
2023-07-19T09:43:43.467Z,23.45
2023-07-19T09:46:12.106Z,23.56
2023-07-19T09:48:39.426Z,23.44
2023-07-19T09:51:07.066Z,23.27
2023-07-19T09:53:39.296Z,23.18
2023-07-19T09:56:10.325Z,23.41
2023-07-19T09:58:39.524Z,23.57
2023-07-19T10:01:06.780Z,23.55
2023-07-19T10:03:37.947Z,23.27
2023-07-19T10:06:05.423Z,23.20
2023-07-19T10:08:33.061Z,23.41
2023-07-19T10:11:02.238Z,23.87
2023-07-19T10:13:30.529Z,23.69
2023-07-19T10:15:58.182Z,23.47
2023-07-19T10:18:26.036Z,23.58
2023-07-19T10:21:04.631Z,23.74
2023-07-19T10:23:35.671Z,23.74
2023-07-19T10:26:07.230Z,23.83
2023-07-19T10:28:35.183Z,23.87
2023-07-19T10:31:25.921Z,23.77
2023-07-19T10:33:56.130Z,23.60
2023-07-19T10:36:24.877Z,23.70
2023-07-19T10:38:52.711Z,23.73
2023-07-19T10:41:21.343Z,23.72
2023-07-19T10:43:52.781Z,23.72
2023-07-19T10:46:22.957Z,23.79
2023-07-19T10:48:55.340Z,23.84
2023-07-19T10:51:26.150Z,23.91
2023-07-19T10:53:58.819Z,23.78
2023-07-19T10:56:28.459Z,23.82
2023-07-19T10:59:00.085Z,23.99
2023-07-19T11:01:29.922Z,24.08
2023-07-19T11:04:03.525Z,24.03
2023-07-19T11:06:32.051Z,24.18
2023-07-19T11:09:10.869Z,24.24
2023-07-19T11:11:39.677Z,24.24
2023-07-19T11:14:07.494Z,24.26
2023-07-19T11:16:35.815Z,24.47
2023-07-19T11:19:05.117Z,24.33
2023-07-19T11:21:33.095Z,24.39
2023-07-19T11:24:02.126Z,24.39
2023-07-19T11:26:29.584Z,24.59
2023-07-19T11:28:59.036Z,24.65
2023-07-19T11:31:30.535Z,24.67
2023-07-19T11:34:14.310Z,24.70
2023-07-19T11:36:46.296Z,24.90
2023-07-19T11:39:27.002Z,24.73
2023-07-19T11:41:54.530Z,24.78
2023-07-19T11:44:23.086Z,24.66
2023-07-19T11:46:53.039Z,24.67
2023-07-19T11:49:20.696Z,24.70
2023-07-19T11:51:48.602Z,24.86
2023-07-19T11:54:17.656Z,24.77
2023-07-19T11:56:45.580Z,24.93
2023-07-19T11:59:12.786Z,25.01
2023-07-19T12:01:40.580Z,24.92
2023-07-19T12:04:08.453Z,25.03
2023-07-19T12:06:35.945Z,25.07
2023-07-19T12:09:03.521Z,24.92
2023-07-19T12:11:31.260Z,24.84
2023-07-19T12:13:59.694Z,24.75
2023-07-19T12:16:27.458Z,24.43
2023-07-19T12:18:55.231Z,24.69
2023-07-19T12:21:44.292Z,24.65
2023-07-19T12:24:19.495Z,24.37
2023-07-19T12:26:47.187Z,24.48
2023-07-19T12:29:14.721Z,24.35
2023-07-19T12:31:42.522Z,24.23
2023-07-19T12:34:10.205Z,24.23
2023-07-19T12:36:38.116Z,24.09
2023-07-19T12:39:06.233Z,24.04
2023-07-19T12:41:35.375Z,23.97
2023-07-19T12:44:05.127Z,23.74
2023-07-19T12:46:34.193Z,23.90
2023-07-19T12:49:02.107Z,24.07
2023-07-19T12:51:30.202Z,23.91
2023-07-19T12:54:01.038Z,23.78
2023-07-19T12:56:29.222Z,23.62
2023-07-19T12:59:06.574Z,23.93
2023-07-19T13:01:39.190Z,23.94
2023-07-19T13:04:09.013Z,24.37
2023-07-19T13:06:37.684Z,24.13
2023-07-19T13:09:09.374Z,24.10
2023-07-19T13:11:39.722Z,24.12
2023-07-19T13:14:08.597Z,24.23
2023-07-19T13:16:36.625Z,24.41
2023-07-19T13:19:04.798Z,24.49
2023-07-19T13:21:32.486Z,24.27
2023-07-19T13:23:59.843Z,24.47
2023-07-19T13:26:28.051Z,24.45
2023-07-19T13:28:55.559Z,24.31
2023-07-19T13:31:22.883Z,24.31
2023-07-19T13:33:50.671Z,24.44
2023-07-19T13:38:48.311Z,24.47
2023-07-19T13:41:16.208Z,24.36
2023-07-19T13:43:44.448Z,24.33
2023-07-19T13:46:11.923Z,24.36
2023-07-19T13:48:39.619Z,24.42
2023-07-19T13:51:07.005Z,24.18
2023-07-19T13:53:35.386Z,24.29
2023-07-19T13:56:03.822Z,24.44
2023-07-19T13:58:31.316Z,24.31
2023-07-19T14:00:58.817Z,24.45
2023-07-19T14:03:29.704Z,24.44
2023-07-19T14:05:57.291Z,24.41
2023-07-19T14:08:24.528Z,24.44
2023-07-19T14:10:52.451Z,24.40
2023-07-19T14:16:04.492Z,24.37
2023-07-19T14:18:33.094Z,24.37
2023-07-19T14:21:00.482Z,24.44
2023-07-19T14:23:28.322Z,24.38
2023-07-19T14:25:56.548Z,24.32
2023-07-19T14:28:24.052Z,24.24
2023-07-19T14:30:52.703Z,24.44
2023-07-19T14:33:22.186Z,24.40
2023-07-19T14:35:49.444Z,24.40
2023-07-19T14:38:17.016Z,24.60
2023-07-19T14:40:44.477Z,24.40
2023-07-19T14:43:11.919Z,24.54
2023-07-19T14:45:40.523Z,24.55
2023-07-19T14:48:10.839Z,24.36
2023-07-19T14:50:38.408Z,24.55
2023-07-19T14:53:08.503Z,24.62
2023-07-19T14:55:36.633Z,24.60
2023-07-19T14:58:04.170Z,24.54
2023-07-19T15:03:02.476Z,24.72
2023-07-19T15:05:31.212Z,24.92
2023-07-19T15:07:58.447Z,24.89
2023-07-19T15:10:26.825Z,24.83
2023-07-19T15:12:54.134Z,24.91
2023-07-19T15:15:21.520Z,24.87
2023-07-19T15:17:51.168Z,24.94
2023-07-19T15:20:18.866Z,24.93
2023-07-19T15:22:46.311Z,24.99
2023-07-19T15:25:16.033Z,25.07
2023-07-19T15:27:44.002Z,25.15
2023-07-19T15:30:12.586Z,25.33
2023-07-19T15:32:42.254Z,25.36
2023-07-19T15:35:10.466Z,25.34
2023-07-19T15:37:37.994Z,25.33
2023-07-19T15:40:05.891Z,25.40
2023-07-19T15:42:33.216Z,25.38
2023-07-19T15:45:00.472Z,25.53
2023-07-19T15:47:28.370Z,25.51
2023-07-19T15:49:55.751Z,25.61
2023-07-19T15:52:26.098Z,25.71
2023-07-19T15:54:53.997Z,25.66
2023-07-19T15:57:21.212Z,25.93
2023-07-19T15:59:48.393Z,25.91
2023-07-19T16:02:16.746Z,25.81
2023-07-19T16:04:44.006Z,25.96
2023-07-19T16:07:14.117Z,25.96
2023-07-19T16:09:42.590Z,25.98
2023-07-19T16:12:10.687Z,26.00
2023-07-19T16:14:37.840Z,26.01
2023-07-19T16:17:05.889Z,26.10
2023-07-19T16:19:33.045Z,26.14
2023-07-19T16:22:00.212Z,26.19
2023-07-19T16:24:27.949Z,26.16
2023-07-19T16:26:55.552Z,26.26
2023-07-19T16:29:22.816Z,26.13
2023-07-19T16:31:50.700Z,26.20
2023-07-19T16:34:18.151Z,26.28
2023-07-19T16:36:46.912Z,26.46
2023-07-19T16:39:15.164Z,26.49
2023-07-19T16:41:42.483Z,26.59
2023-07-19T16:44:11.539Z,26.67
2023-07-19T16:46:40.408Z,26.63
2023-07-19T16:49:08.068Z,26.71
2023-07-19T16:51:35.267Z,26.79
2023-07-19T16:54:03.291Z,26.79
2023-07-19T16:56:33.116Z,26.74
2023-07-19T16:59:00.347Z,26.84
2023-07-19T17:01:29.002Z,26.81
2023-07-19T17:03:56.532Z,26.86
2023-07-19T17:06:24.021Z,27.08
2023-07-19T17:08:51.622Z,27.10
2023-07-19T17:11:19.207Z,27.19
2023-07-19T17:13:46.821Z,27.29
2023-07-19T17:16:14.457Z,27.36
2023-07-19T17:18:43.766Z,27.39
2023-07-19T17:21:13.804Z,27.52
2023-07-19T17:23:41.283Z,27.58
2023-07-19T17:26:08.436Z,27.76
2023-07-19T17:28:36.250Z,27.85
2023-07-19T17:31:03.799Z,27.91
2023-07-19T17:33:31.502Z,27.98
2023-07-19T17:35:59.065Z,28.08
2023-07-19T17:38:28.287Z,28.12
2023-07-19T17:40:55.717Z,28.25
2023-07-19T17:43:23.339Z,28.27
2023-07-19T17:45:51.386Z,28.41
2023-07-19T17:48:18.628Z,28.43
2023-07-19T17:50:45.828Z,28.59
2023-07-19T17:53:13.639Z,28.52
2023-07-19T17:55:41.285Z,28.55
2023-07-19T17:58:08.495Z,28.69
2023-07-19T18:00:36.844Z,28.78
2023-07-19T18:03:04.270Z,28.98
2023-07-19T18:05:31.737Z,29.08
2023-07-19T18:08:11.589Z,28.95
2023-07-19T18:10:48.246Z,29.10
2023-07-19T18:13:16.278Z,29.18
2023-07-19T18:15:43.430Z,29.22
2023-07-19T18:18:10.644Z,29.26
2023-07-19T18:20:38.669Z,29.42
2023-07-19T18:23:05.996Z,29.58
2023-07-19T18:25:33.164Z,29.59
2023-07-19T18:28:01.083Z,29.60
2023-07-19T18:30:28.337Z,29.67
2023-07-19T18:32:56.456Z,29.85
2023-07-19T18:35:24.417Z,29.84
2023-07-19T18:37:51.626Z,29.98
2023-07-19T18:40:19.011Z,30.23
2023-07-19T18:42:46.468Z,30.23
2023-07-19T18:45:14.091Z,30.21
2023-07-19T18:47:41.683Z,30.30
2023-07-19T18:50:09.984Z,30.41
2023-07-19T18:52:37.321Z,30.35
2023-07-19T18:55:05.165Z,30.38
2023-07-19T18:57:32.759Z,30.45
2023-07-19T18:59:59.995Z,30.59
2023-07-19T19:02:27.512Z,30.67
2023-07-19T19:04:55.036Z,30.77
2023-07-19T19:07:22.280Z,30.83
2023-07-19T19:09:49.784Z,30.87
2023-07-19T19:12:17.299Z,31.05
2023-07-19T19:14:46.695Z,31.04
2023-07-19T19:17:14.656Z,31.03
2023-07-19T19:19:42.121Z,31.09
2023-07-19T19:22:09.757Z,31.24
2023-07-19T19:24:37.123Z,31.20
2023-07-19T19:27:05.009Z,31.36
2023-07-19T19:29:32.247Z,31.38
2023-07-19T19:31:59.968Z,31.58
2023-07-19T19:34:27.710Z,31.55
2023-07-19T19:36:55.514Z,31.67
2023-07-19T19:39:29.493Z,31.75
2023-07-19T19:41:58.331Z,31.93
2023-07-19T19:44:25.882Z,31.87
2023-07-19T19:46:53.051Z,32.01
2023-07-19T19:49:20.590Z,32.07
2023-07-19T19:51:49.448Z,32.37
2023-07-19T19:54:16.680Z,32.49
2023-07-19T19:56:50.474Z,32.47
2023-07-19T19:59:18.901Z,32.42
2023-07-19T20:01:47.245Z,32.55
2023-07-19T20:04:14.665Z,32.60
2023-07-19T20:06:42.513Z,32.67
2023-07-19T20:09:12.679Z,32.94
2023-07-19T20:11:46.712Z,32.87
2023-07-19T20:14:26.160Z,32.91
2023-07-19T20:16:56.029Z,32.98
2023-07-19T20:21:55.511Z,33.09
2023-07-19T20:24:26.687Z,33.37
2023-07-19T20:27:04.463Z,33.55
2023-07-19T20:30:01.859Z,33.49
2023-07-19T20:34:56.577Z,33.51
2023-07-19T20:39:55.519Z,33.51
2023-07-19T20:42:27.345Z,33.60
2023-07-19T20:44:55.385Z,33.59
2023-07-19T20:47:22.955Z,33.56
2023-07-19T20:49:50.213Z,33.62
2023-07-19T20:52:17.932Z,33.82
2023-07-19T20:54:45.613Z,33.76
2023-07-19T20:57:13.111Z,33.80
2023-07-19T20:59:40.448Z,33.73
2023-07-19T21:02:08.533Z,33.83
2023-07-19T21:04:36.037Z,33.82
2023-07-19T21:07:03.689Z,33.92
2023-07-19T21:09:31.387Z,33.94
2023-07-19T21:11:58.623Z,33.97
2023-07-19T21:14:26.198Z,34.04
2023-07-19T21:16:53.675Z,34.13
2023-07-19T21:19:20.774Z,34.16
2023-07-19T21:21:48.063Z,34.34
2023-07-19T21:24:15.341Z,34.42
2023-07-19T21:26:43.116Z,34.42
2023-07-19T21:29:10.519Z,34.56
2023-07-19T21:31:39.196Z,34.57
2023-07-19T21:34:06.803Z,34.68
2023-07-19T21:36:34.432Z,34.70
2023-07-19T21:39:02.369Z,34.83
2023-07-19T21:41:30.590Z,34.76
2023-07-19T21:43:59.173Z,34.84
2023-07-19T21:46:27.532Z,34.82
2023-07-19T21:48:56.114Z,34.70
2023-07-19T21:51:24.004Z,34.85
2023-07-19T21:53:51.606Z,34.96
2023-07-19T21:56:21.501Z,35.03
2023-07-19T21:58:49.718Z,35.00
2023-07-19T22:01:16.995Z,35.16
2023-07-19T22:03:44.397Z,35.16
2023-07-19T22:06:12.008Z,35.32
2023-07-19T22:08:40.724Z,35.30
2023-07-19T22:11:09.002Z,35.59
2023-07-19T22:13:36.950Z,35.58
2023-07-19T22:16:04.230Z,35.64
2023-07-19T22:18:31.427Z,35.72
2023-07-19T22:21:15.322Z,36.23
2023-07-19T22:23:47.684Z,36.46
2023-07-19T22:26:15.745Z,36.63
2023-07-19T22:28:43.065Z,37.52
2023-07-19T22:31:10.404Z,38.03
2023-07-19T22:33:38.105Z,38.42
2023-07-19T22:36:06.258Z,38.84
2023-07-19T22:38:33.373Z,40.12
2023-07-19T22:41:01.526Z,40.37
2023-07-19T22:43:29.278Z,40.97
2023-07-19T22:45:56.816Z,41.27
2023-07-19T22:48:24.162Z,41.97
2023-07-19T22:50:51.336Z,41.73
2023-07-19T22:53:18.767Z,42.54
2023-07-19T22:55:46.367Z,41.78
2023-07-19T22:58:13.459Z,42.60
2023-07-19T23:00:40.941Z,42.82
2023-07-19T23:03:08.400Z,42.94
2023-07-19T23:05:36.766Z,43.77
2023-07-19T23:08:04.449Z,43.50
2023-07-19T23:10:31.707Z,43.80
2023-07-19T23:12:58.859Z,44.04
2023-07-19T23:15:27.019Z,44.57
2023-07-19T23:17:54.488Z,44.49
2023-07-19T23:20:21.921Z,45.17
2023-07-19T23:22:49.855Z,45.27
2023-07-19T23:25:19.065Z,44.95
2023-07-19T23:27:46.251Z,44.58
2023-07-19T23:30:13.801Z,44.89
2023-07-19T23:32:41.760Z,45.74
2023-07-19T23:35:09.255Z,45.75
2023-07-19T23:37:36.573Z,45.78
2023-07-19T23:40:06.572Z,45.70
2023-07-19T23:42:34.580Z,45.54
2023-07-19T23:45:01.834Z,45.92
2023-07-19T23:47:29.603Z,45.96
2023-07-19T23:49:56.829Z,46.31
2023-07-19T23:52:24.195Z,46.51
2023-07-19T23:54:52.024Z,46.61
2023-07-19T23:57:19.105Z,46.89
2023-07-19T23:59:46.297Z,46.88
